createdAt,value
2023-04-17T00:00:28.799Z,25.09
2023-04-17T00:02:34.009Z,25.08
2023-04-17T00:04:39.456Z,25.07
2023-04-17T00:06:45.476Z,25.07
2023-04-17T00:08:50.536Z,25.06
2023-04-17T00:11:04.545Z,25.07
2023-04-17T00:13:13.228Z,25.08
2023-04-17T00:15:18.249Z,25.07
2023-04-17T00:17:23.323Z,25.06
2023-04-17T00:19:28.567Z,25.06
2023-04-17T00:21:33.605Z,25.06
2023-04-17T00:23:38.668Z,25.05
2023-04-17T00:25:43.777Z,25.03
2023-04-17T00:27:48.849Z,25.02
2023-04-17T00:29:53.928Z,25.02
2023-04-17T00:31:58.986Z,25.02
2023-04-17T00:34:04.190Z,25.01
2023-04-17T00:36:09.223Z,25
2023-04-17T00:38:14.266Z,25
2023-04-17T00:40:19.322Z,25
2023-04-17T00:42:24.404Z,24.99
2023-04-17T00:44:29.548Z,24.98
2023-04-17T00:46:34.671Z,24.94
2023-04-17T00:48:39.710Z,24.96
2023-04-17T00:50:44.794Z,24.94
2023-04-17T00:52:49.931Z,24.93
2023-04-17T00:54:55.032Z,24.92
2023-04-17T00:57:00.085Z,24.91
2023-04-17T00:59:05.132Z,24.91
2023-04-17T01:01:10.327Z,24.89
2023-04-17T01:03:15.667Z,24.87
2023-04-17T01:05:21.495Z,24.87
2023-04-17T01:07:26.614Z,24.88
2023-04-17T01:09:31.685Z,24.86
2023-04-17T01:11:36.708Z,24.85
2023-04-17T01:13:41.735Z,24.83
2023-04-17T01:15:46.824Z,24.81
2023-04-17T01:17:51.971Z,24.8
2023-04-17T01:19:57.414Z,24.8
2023-04-17T01:22:02.563Z,24.79
2023-04-17T01:24:07.664Z,24.8
2023-04-17T01:26:12.788Z,24.78
2023-04-17T01:28:17.869Z,24.77
2023-04-17T01:30:22.883Z,24.76
2023-04-17T01:32:27.995Z,24.75
2023-04-17T01:34:33.631Z,24.74
2023-04-17T01:36:41.251Z,24.77
2023-04-17T01:38:46.309Z,24.76
2023-04-17T01:40:51.383Z,24.73
2023-04-17T01:42:56.419Z,24.74
2023-04-17T01:45:01.522Z,24.72
2023-04-17T01:47:06.699Z,24.71
2023-04-17T01:49:11.902Z,24.71
2023-04-17T01:51:17.361Z,24.69
2023-04-17T01:53:22.395Z,24.68
2023-04-17T01:55:27.420Z,24.69
2023-04-17T01:57:32.389Z,24.66
2023-04-17T01:59:37.514Z,24.66
2023-04-17T02:01:42.592Z,24.64
2023-04-17T02:03:48.014Z,24.63
2023-04-17T02:05:53.998Z,24.61
2023-04-17T02:07:59.190Z,24.6
2023-04-17T02:10:04.213Z,24.59
2023-04-17T02:12:09.269Z,24.58
2023-04-17T02:14:14.432Z,24.57
2023-04-17T02:16:19.647Z,24.58
2023-04-17T02:18:24.767Z,24.56
2023-04-17T02:20:29.815Z,24.56
2023-04-17T02:22:34.932Z,24.56
2023-04-17T02:24:39.991Z,24.53
2023-04-17T02:26:45.017Z,24.54
2023-04-17T02:28:50.079Z,24.54
2023-04-17T02:30:55.309Z,24.54
2023-04-17T02:33:00.505Z,24.52
2023-04-17T02:35:05.865Z,24.53
2023-04-17T02:37:10.919Z,24.53
2023-04-17T02:39:15.967Z,24.52
2023-04-17T02:41:21.114Z,24.53
2023-04-17T02:43:26.284Z,24.53
2023-04-17T02:45:31.341Z,24.5
2023-04-17T02:47:36.501Z,24.51
2023-04-17T02:49:41.695Z,24.5
2023-04-17T02:51:46.737Z,24.51
2023-04-17T02:53:51.802Z,24.48
2023-04-17T02:55:56.823Z,24.48
2023-04-17T02:58:01.871Z,24.47
2023-04-17T03:00:06.992Z,24.46
2023-04-17T03:02:12.207Z,24.45
2023-04-17T03:04:17.613Z,24.43
2023-04-17T03:06:22.869Z,24.42
2023-04-17T03:08:28.030Z,24.39
2023-04-17T03:10:35.889Z,24.4
2023-04-17T03:12:40.959Z,24.39
2023-04-17T03:14:45.966Z,24.39
2023-04-17T03:16:51.041Z,24.4
2023-04-17T03:18:56.437Z,24.4
2023-04-17T03:21:01.467Z,24.41
2023-04-17T03:23:06.543Z,24.43
2023-04-17T03:25:11.686Z,24.42
2023-04-17T03:28:02.823Z,24.4
2023-04-17T03:30:07.882Z,24.42
2023-04-17T03:32:13.104Z,24.43
2023-04-17T03:34:18.618Z,24.42
2023-04-17T03:36:23.796Z,24.4
2023-04-17T03:38:28.841Z,24.38
2023-04-17T03:40:33.911Z,24.37
2023-04-17T03:42:39.000Z,24.35
2023-04-17T03:44:44.040Z,24.35
2023-04-17T03:46:49.108Z,24.33
2023-04-17T03:48:54.155Z,24.31
2023-04-17T03:50:59.231Z,24.3
2023-04-17T03:53:04.266Z,24.29
2023-04-17T03:55:09.412Z,24.28
2023-04-17T03:57:14.510Z,24.27
2023-04-17T03:59:19.564Z,24.26
2023-04-17T04:01:24.741Z,24.27
2023-04-17T04:03:30.102Z,24.26
2023-04-17T04:05:36.281Z,24.25
2023-04-17T04:07:41.328Z,24.25
2023-04-17T04:09:46.410Z,24.24
2023-04-17T04:11:51.440Z,24.26
2023-04-17T04:13:56.523Z,24.24
2023-04-17T04:16:01.647Z,24.22
2023-04-17T04:18:06.955Z,24.22
2023-04-17T04:20:12.252Z,24.2
2023-04-17T04:22:17.373Z,24.2
2023-04-17T04:24:22.488Z,24.18
2023-04-17T04:26:27.885Z,24.19
2023-04-17T04:28:32.912Z,24.2
2023-04-17T04:30:37.965Z,24.19
2023-04-17T04:32:43.016Z,24.17
2023-04-17T04:34:48.199Z,24.16
2023-04-17T04:36:53.271Z,24.17
2023-04-17T04:38:58.288Z,24.15
2023-04-17T04:41:03.292Z,24.13
2023-04-17T04:43:08.364Z,24.14
2023-04-17T04:45:13.503Z,24.13
2023-04-17T04:47:18.559Z,24.11
2023-04-17T04:49:23.711Z,24.09
2023-04-17T04:51:28.773Z,24.09
2023-04-17T04:53:33.959Z,24.07
2023-04-17T04:55:38.990Z,24.08
2023-04-17T04:57:44.041Z,24.07
2023-04-17T04:59:49.215Z,24.06
2023-04-17T05:01:54.263Z,24.08
2023-04-17T05:03:59.761Z,24.15
2023-04-17T05:06:05.676Z,24.23
2023-04-17T05:08:10.742Z,24.31
2023-04-17T05:10:15.868Z,24.37
2023-04-17T05:12:20.994Z,24.43
2023-04-17T05:14:26.043Z,24.49
2023-04-17T05:16:31.236Z,24.54
2023-04-17T05:18:36.750Z,24.59
2023-04-17T05:20:41.773Z,24.64
2023-04-17T05:22:46.818Z,24.71
2023-04-17T05:24:51.857Z,24.74
2023-04-17T05:26:56.909Z,24.82
2023-04-17T05:29:02.049Z,24.85
2023-04-17T05:31:07.222Z,24.85
2023-04-17T05:33:12.497Z,24.88
2023-04-17T05:35:17.574Z,24.9
2023-04-17T05:37:22.785Z,24.89
2023-04-17T05:39:27.926Z,24.91
2023-04-17T05:41:33.059Z,24.93
2023-04-17T05:43:38.291Z,24.95
2023-04-17T05:45:43.389Z,24.98
2023-04-17T05:47:48.640Z,24.99
2023-04-17T05:49:53.849Z,25.03
2023-04-17T05:51:58.891Z,25.03
2023-04-17T05:54:04.053Z,25.03
2023-04-17T05:56:09.143Z,25.04
2023-04-17T05:58:22.909Z,25.09
2023-04-17T06:00:28.836Z,25.1
2023-04-17T06:02:34.468Z,25.16
2023-04-17T06:04:40.184Z,25.18
2023-04-17T06:06:46.366Z,25.24
2023-04-17T06:08:51.491Z,25.26
2023-04-17T06:10:56.558Z,25.26
2023-04-17T06:13:01.627Z,25.25
2023-04-17T06:15:07.439Z,25.23
2023-04-17T06:17:13.294Z,25.23
2023-04-17T06:19:18.782Z,25.23
2023-04-17T06:21:24.312Z,25.22
2023-04-17T06:23:29.532Z,25.2
2023-04-17T06:25:34.625Z,25.19
2023-04-17T06:27:39.692Z,25.2
2023-04-17T06:29:44.752Z,25.2
2023-04-17T06:31:49.833Z,25.18
2023-04-17T06:33:54.926Z,25.2
2023-04-17T06:35:59.996Z,25.2
2023-04-17T06:38:05.087Z,25.2
2023-04-17T06:40:10.226Z,25.21
2023-04-17T06:42:15.311Z,25.21
2023-04-17T06:44:20.409Z,25.21
2023-04-17T06:46:25.536Z,25.22
2023-04-17T06:48:30.758Z,25.23
2023-04-17T06:50:35.791Z,25.22
2023-04-17T06:52:40.835Z,25.22
2023-04-17T06:54:45.919Z,25.22
2023-04-17T06:56:50.955Z,25.2
2023-04-17T06:58:56.017Z,25.2
2023-04-17T07:01:01.449Z,25.21
2023-04-17T07:03:06.733Z,25.21
2023-04-17T07:05:12.165Z,25.22
2023-04-17T07:07:17.186Z,25.23
2023-04-17T07:09:22.240Z,25.23
2023-04-17T07:11:27.311Z,25.23
2023-04-17T07:13:32.325Z,25.23
2023-04-17T07:15:37.435Z,25.24
2023-04-17T07:17:42.633Z,25.25
2023-04-17T07:19:47.926Z,25.26
2023-04-17T07:21:53.103Z,25.27
2023-04-17T07:23:58.249Z,25.26
2023-04-17T07:26:03.359Z,25.27
2023-04-17T07:28:08.500Z,25.27
2023-04-17T07:30:13.679Z,25.28
2023-04-17T07:32:18.761Z,25.29
2023-04-17T07:34:23.836Z,25.29
2023-04-17T07:36:28.908Z,25.3
2023-04-17T07:38:33.929Z,25.31
2023-04-17T07:40:39.247Z,25.31
2023-04-17T07:42:44.292Z,25.32
2023-04-17T07:44:49.495Z,25.3
2023-04-17T07:46:54.665Z,25.34
2023-04-17T07:48:59.940Z,25.34
2023-04-17T07:51:05.131Z,25.35
2023-04-17T07:53:10.247Z,25.37
2023-04-17T07:55:15.435Z,25.36
2023-04-17T07:57:20.531Z,25.37
2023-04-17T07:59:25.573Z,25.37
2023-04-17T08:01:30.717Z,25.38
2023-04-17T08:03:35.941Z,25.39
2023-04-17T08:05:41.957Z,25.42
2023-04-17T08:07:47.102Z,25.41
2023-04-17T08:09:52.188Z,25.4
2023-04-17T08:11:58.171Z,25.42
2023-04-17T08:14:03.435Z,25.43
2023-04-17T08:16:08.492Z,25.43
2023-04-17T08:18:13.751Z,25.44
2023-04-17T08:20:18.842Z,25.44
2023-04-17T08:22:24.025Z,25.45
2023-04-17T08:24:29.166Z,25.47
2023-04-17T08:26:34.542Z,25.47
2023-04-17T08:28:39.618Z,25.49
2023-04-17T08:30:44.752Z,25.48
2023-04-17T08:32:49.886Z,25.49
2023-04-17T08:34:55.158Z,25.49
2023-04-17T08:37:00.280Z,25.51
2023-04-17T08:39:11.638Z,25.52
2023-04-17T08:41:28.205Z,25.52
2023-04-17T08:43:33.493Z,25.55
2023-04-17T08:45:38.667Z,25.56
2023-04-17T08:47:43.851Z,25.57
2023-04-17T08:49:49.234Z,25.57
2023-04-17T08:51:54.590Z,25.56
2023-04-17T08:53:59.611Z,25.6
2023-04-17T08:56:06.310Z,25.61
2023-04-17T08:58:13.170Z,25.61
2023-04-17T09:00:18.347Z,25.59
2023-04-17T09:02:24.771Z,25.62
2023-04-17T09:04:32.085Z,25.63
2023-04-17T09:06:37.404Z,25.66
2023-04-17T09:08:42.462Z,25.66
2023-04-17T09:10:47.561Z,25.64
2023-04-17T09:12:52.727Z,25.6
2023-04-17T09:14:57.786Z,25.6
2023-04-17T09:17:02.850Z,25.61
2023-04-17T09:19:08.008Z,25.61
2023-04-17T09:21:13.589Z,25.63
2023-04-17T09:23:18.663Z,25.63
2023-04-17T09:25:23.748Z,25.63
2023-04-17T09:27:28.807Z,25.64
2023-04-17T09:29:34.052Z,25.6
2023-04-17T09:31:39.240Z,25.61
2023-04-17T09:33:44.479Z,25.59
2023-04-17T09:35:49.583Z,25.52
2023-04-17T09:37:54.966Z,25.45
2023-04-17T09:40:00.065Z,25.44
2023-04-17T09:42:05.263Z,25.41
2023-04-17T09:44:10.565Z,25.44
2023-04-17T09:46:16.714Z,25.47
2023-04-17T09:48:22.002Z,25.5
2023-04-17T09:50:27.230Z,25.52
2023-04-17T09:52:32.414Z,25.53
2023-04-17T09:54:37.468Z,25.57
2023-04-17T09:56:42.566Z,25.6
2023-04-17T09:58:47.677Z,25.65
2023-04-17T10:00:52.831Z,25.7
2023-04-17T10:02:58.184Z,25.74
2023-04-17T10:05:03.962Z,25.77
2023-04-17T10:07:09.007Z,25.81
2023-04-17T10:09:14.067Z,25.82
2023-04-17T10:11:19.227Z,25.84
2023-04-17T10:13:24.243Z,25.83
2023-04-17T10:15:29.396Z,25.83
2023-04-17T10:17:34.666Z,25.84
2023-04-17T10:19:39.958Z,25.87
2023-04-17T10:21:45.064Z,25.86
2023-04-17T10:23:50.118Z,25.85
2023-04-17T10:25:55.246Z,25.85
2023-04-17T10:28:00.316Z,25.85
2023-04-17T10:30:05.374Z,25.84
2023-04-17T10:32:10.648Z,25.87
2023-04-17T10:34:16.023Z,25.87
2023-04-17T10:36:21.078Z,25.85
2023-04-17T10:38:26.151Z,25.86
2023-04-17T10:40:31.279Z,25.86
2023-04-17T10:42:36.655Z,25.85
2023-04-17T10:44:41.724Z,25.88
2023-04-17T10:46:46.890Z,25.89
2023-04-17T10:48:52.047Z,25.91
2023-04-17T10:50:57.292Z,25.91
2023-04-17T10:53:02.326Z,25.92
2023-04-17T10:55:07.379Z,25.92
2023-04-17T10:57:12.587Z,25.93
2023-04-17T10:59:17.617Z,25.94
2023-04-17T11:01:22.669Z,25.95
2023-04-17T11:03:31.176Z,25.95
2023-04-17T11:05:36.383Z,25.97
2023-04-17T11:07:41.452Z,25.96
2023-04-17T11:09:46.494Z,25.96
2023-04-17T11:11:51.717Z,25.97
2023-04-17T11:13:56.765Z,25.97
2023-04-17T11:16:01.847Z,25.98
2023-04-17T11:18:07.061Z,25.99
2023-04-17T11:20:12.431Z,26
2023-04-17T11:22:17.539Z,26.02
2023-04-17T11:24:22.623Z,26.03
2023-04-17T11:26:27.944Z,26.08
2023-04-17T11:28:33.056Z,26.09
2023-04-17T11:30:38.172Z,26.09
2023-04-17T11:32:43.439Z,26.08
2023-04-17T11:34:48.828Z,26.07
2023-04-17T11:36:54.079Z,26.09
2023-04-17T11:38:59.253Z,26.11
2023-04-17T11:41:04.374Z,26.11
2023-04-17T11:43:09.420Z,26.12
2023-04-17T11:45:14.536Z,26.12
2023-04-17T11:47:19.823Z,26.12
2023-04-17T11:49:25.057Z,26.15
2023-04-17T11:51:30.234Z,26.15
2023-04-17T11:53:35.347Z,26.16
2023-04-17T11:55:40.393Z,26.16
2023-04-17T11:57:45.611Z,26.17
2023-04-17T11:59:50.658Z,26.18
2023-04-17T12:01:55.810Z,26.19
2023-04-17T12:04:01.203Z,26.21
2023-04-17T12:06:06.860Z,26.24
2023-04-17T12:08:11.968Z,26.25
2023-04-17T12:10:16.997Z,26.26
2023-04-17T12:12:22.062Z,26.27
2023-04-17T12:14:27.761Z,26.28
2023-04-17T12:16:32.957Z,26.3
2023-04-17T12:18:38.500Z,26.32
2023-04-17T12:20:43.575Z,26.34
2023-04-17T12:22:48.752Z,26.36
2023-04-17T12:24:53.776Z,26.36
2023-04-17T12:26:58.857Z,26.39
2023-04-17T12:29:03.961Z,26.4
2023-04-17T12:31:09.016Z,26.39
2023-04-17T12:33:14.371Z,26.37
2023-04-17T12:35:19.394Z,26.39
2023-04-17T12:37:24.598Z,26.41
2023-04-17T12:39:29.701Z,26.4
2023-04-17T12:41:34.745Z,26.42
2023-04-17T12:43:39.900Z,26.43
2023-04-17T12:45:44.967Z,26.44
2023-04-17T12:47:50.338Z,26.43
2023-04-17T12:49:55.741Z,26.42
2023-04-17T12:52:03.188Z,26.42
2023-04-17T12:54:08.962Z,26.43
2023-04-17T12:56:14.702Z,26.42
2023-04-17T12:58:19.764Z,26.44
2023-04-17T13:00:25.492Z,26.43
2023-04-17T13:02:30.772Z,26.43
2023-04-17T13:04:36.516Z,26.42
2023-04-17T13:06:42.295Z,26.41
2023-04-17T13:08:47.368Z,26.4
2023-04-17T13:10:52.390Z,26.41
2023-04-17T13:12:57.487Z,26.42
2023-04-17T13:15:02.546Z,26.42
2023-04-17T13:17:07.839Z,26.42
2023-04-17T13:19:13.356Z,26.42
2023-04-17T13:21:18.987Z,26.44
2023-04-17T13:23:24.180Z,26.43
2023-04-17T13:25:29.211Z,26.43
2023-04-17T13:27:34.237Z,26.43
2023-04-17T13:29:39.287Z,26.43
2023-04-17T13:31:44.409Z,26.43
2023-04-17T13:33:49.521Z,26.43
2023-04-17T13:35:54.644Z,26.43
2023-04-17T13:37:59.719Z,26.44
2023-04-17T13:40:04.839Z,26.45
2023-04-17T13:42:10.028Z,26.45
2023-04-17T13:44:15.168Z,26.43
2023-04-17T13:46:20.348Z,26.45
2023-04-17T13:48:25.643Z,26.45
2023-04-17T13:50:30.661Z,26.45
2023-04-17T13:52:35.764Z,26.43
2023-04-17T13:54:40.851Z,26.44
2023-04-17T13:56:45.889Z,26.43
2023-04-17T13:58:51.005Z,26.43
2023-04-17T14:00:56.045Z,26.42
2023-04-17T14:03:01.186Z,26.41
2023-04-17T14:05:06.941Z,26.37
2023-04-17T14:07:12.565Z,26.39
2023-04-17T14:09:17.617Z,26.39
2023-04-17T14:11:22.651Z,26.36
2023-04-17T14:13:27.703Z,26.36
2023-04-17T14:15:32.780Z,26.34
2023-04-17T14:17:38.124Z,26.32
2023-04-17T14:19:43.336Z,26.33
2023-04-17T14:21:48.647Z,26.3
2023-04-17T14:23:53.877Z,26.31
2023-04-17T14:25:58.994Z,26.29
2023-04-17T14:28:04.129Z,26.25
2023-04-17T14:30:09.256Z,26.27
2023-04-17T14:32:14.404Z,26.28
2023-04-17T14:34:19.422Z,26.27
2023-04-17T14:36:24.689Z,26.26
2023-04-17T14:38:29.812Z,26.25
2023-04-17T14:40:34.928Z,26.25
2023-04-17T14:42:51.056Z,26.26
2023-04-17T14:44:58.889Z,26.24
2023-04-17T14:47:04.137Z,26.23
2023-04-17T14:49:09.462Z,26.23
2023-04-17T14:51:15.081Z,26.23
2023-04-17T14:53:21.742Z,26.21
2023-04-17T14:55:27.094Z,26.2
2023-04-17T14:57:32.147Z,26.2
2023-04-17T14:59:37.278Z,26.19
2023-04-17T15:01:42.351Z,26.19
2023-04-17T15:03:48.351Z,26.16
2023-04-17T15:05:54.427Z,26.17
2023-04-17T15:07:59.489Z,26.17
2023-04-17T15:10:04.563Z,26.13
2023-04-17T15:12:09.752Z,26.13
2023-04-17T15:14:14.806Z,26.11
2023-04-17T15:16:19.973Z,26.12
2023-04-17T15:18:25.176Z,26.13
2023-04-17T15:20:30.353Z,26.14
2023-04-17T15:22:37.941Z,26.13
2023-04-17T15:24:42.949Z,26.13
2023-04-17T15:26:50.306Z,26.11
2023-04-17T15:28:55.484Z,26.11
2023-04-17T15:31:00.537Z,26.11
2023-04-17T15:33:07.161Z,26.04
2023-04-17T15:35:14.511Z,26.12
2023-04-17T15:37:19.699Z,26.14
2023-04-17T15:39:24.855Z,26.14
2023-04-17T15:41:29.963Z,26.15
2023-04-17T15:43:34.995Z,26.16
2023-04-17T15:45:40.058Z,26.15
2023-04-17T15:47:45.402Z,26.14
2023-04-17T15:49:50.550Z,26.11
2023-04-17T15:51:55.580Z,26.09
2023-04-17T15:54:00.717Z,26.1
2023-04-17T15:56:05.867Z,26.1
2023-04-17T15:58:10.911Z,26.04
2023-04-17T16:00:16.027Z,26.08
2023-04-17T16:02:21.261Z,26.11
2023-04-17T16:04:26.727Z,26.13
2023-04-17T16:06:32.101Z,26.12
2023-04-17T16:08:38.356Z,26.11
2023-04-17T16:10:43.469Z,26.12
2023-04-17T16:12:48.507Z,26.11
2023-04-17T16:14:53.681Z,26.14
2023-04-17T16:17:01.824Z,26.2
2023-04-17T16:19:06.887Z,26.22
2023-04-17T16:21:11.903Z,26.25
2023-04-17T16:23:17.137Z,26.25
2023-04-17T16:25:22.177Z,26.28
2023-04-17T16:27:27.239Z,26.31
2023-04-17T16:29:32.343Z,26.34
2023-04-17T16:31:37.465Z,26.34
2023-04-17T16:33:42.716Z,26.34
2023-04-17T16:35:47.820Z,26.34
2023-04-17T16:37:52.898Z,26.36
2023-04-17T16:39:57.965Z,26.35
2023-04-17T16:42:02.991Z,26.33
2023-04-17T16:44:08.080Z,26.34
2023-04-17T16:46:21.390Z,26.34
2023-04-17T16:49:05.774Z,26.34
2023-04-17T16:51:10.812Z,26.29
2023-04-17T16:53:15.865Z,26.34
2023-04-17T16:55:20.935Z,26.39
2023-04-17T16:57:26.016Z,26.41
2023-04-17T16:59:31.049Z,26.38
2023-04-17T17:01:36.149Z,26.4
2023-04-17T17:03:41.449Z,26.39
2023-04-17T17:05:47.008Z,26.36
2023-04-17T17:07:52.082Z,26.37
2023-04-17T17:09:57.103Z,26.37
2023-04-17T17:12:02.352Z,26.36
2023-04-17T17:14:07.471Z,26.38
2023-04-17T17:16:12.656Z,26.38
2023-04-17T17:18:17.770Z,26.38
2023-04-17T17:20:22.854Z,26.39
2023-04-17T17:22:27.889Z,26.41
2023-04-17T17:24:32.982Z,26.39
2023-04-17T17:26:38.127Z,26.28
2023-04-17T17:28:43.178Z,26.29
2023-04-17T17:30:48.286Z,26.32
2023-04-17T17:32:53.432Z,26.35
2023-04-17T17:34:58.569Z,26.34
2023-04-17T17:37:03.633Z,26.35
2023-04-17T17:39:08.716Z,26.36
2023-04-17T17:41:14.059Z,26.34
2023-04-17T17:43:19.229Z,26.3
2023-04-17T17:45:24.437Z,26.34
2023-04-17T17:47:29.609Z,26.35
2023-04-17T17:49:34.824Z,26.39
2023-04-17T17:51:39.973Z,26.44
2023-04-17T17:53:45.006Z,26.47
2023-04-17T17:55:50.096Z,26.53
2023-04-17T17:57:55.182Z,26.57
2023-04-17T18:00:00.356Z,26.58
2023-04-17T18:02:05.741Z,26.58
2023-04-17T18:04:11.662Z,26.58
2023-04-17T18:06:18.442Z,26.59
2023-04-17T18:08:23.873Z,26.57
2023-04-17T18:10:28.884Z,26.59
2023-04-17T18:12:33.977Z,26.54
2023-04-17T18:14:39.101Z,26.52
2023-04-17T18:16:44.390Z,26.48
2023-04-17T18:18:49.575Z,26.44
2023-04-17T18:20:54.700Z,26.45
2023-04-17T18:22:59.843Z,26.45
2023-04-17T18:25:04.977Z,26.44
2023-04-17T18:27:10.105Z,26.46
2023-04-17T18:29:15.204Z,26.45
2023-04-17T18:31:20.251Z,26.46
2023-04-17T18:33:25.866Z,26.45
2023-04-17T18:35:30.929Z,26.41
2023-04-17T18:37:36.050Z,26.36
2023-04-17T18:39:41.145Z,26.38
2023-04-17T18:41:46.218Z,26.39
2023-04-17T18:43:51.287Z,26.4
2023-04-17T18:45:56.371Z,26.41
2023-04-17T18:48:01.435Z,26.39
2023-04-17T18:50:06.958Z,26.42
2023-04-17T18:52:12.110Z,26.4
2023-04-17T18:54:17.212Z,26.4
2023-04-17T18:56:22.325Z,26.41
2023-04-17T18:58:27.571Z,26.4
2023-04-17T19:00:32.654Z,26.39
2023-04-17T19:02:37.949Z,26.42
2023-04-17T19:04:43.587Z,26.46
2023-04-17T19:06:48.705Z,26.48
2023-04-17T19:08:53.790Z,26.49
2023-04-17T19:10:58.840Z,26.45
2023-04-17T19:13:03.994Z,26.41
2023-04-17T19:15:09.032Z,26.37
2023-04-17T19:17:14.044Z,26.38
2023-04-17T19:19:19.119Z,26.38
2023-04-17T19:21:24.158Z,26.39
2023-04-17T19:23:29.184Z,26.42
2023-04-17T19:25:34.249Z,26.41
2023-04-17T19:27:39.354Z,26.4
2023-04-17T19:29:44.517Z,26.4
2023-04-17T19:31:49.615Z,26.43
2023-04-17T19:33:54.841Z,26.42
2023-04-17T19:36:00.075Z,26.42
2023-04-17T19:38:05.282Z,26.44
2023-04-17T19:40:17.832Z,26.44
2023-04-17T19:42:30.001Z,26.44
2023-04-17T19:44:35.083Z,26.46
2023-04-17T19:46:40.190Z,26.45
2023-04-17T19:48:45.248Z,26.47
2023-04-17T19:50:51.109Z,26.46
2023-04-17T19:52:58.248Z,26.47
2023-04-17T19:55:03.357Z,26.45
2023-04-17T19:57:08.438Z,26.43
2023-04-17T19:59:13.637Z,26.41
2023-04-17T20:01:19.320Z,26.39
2023-04-17T20:03:24.635Z,26.38
2023-04-17T20:05:30.456Z,26.37
2023-04-17T20:07:35.665Z,26.36
2023-04-17T20:09:40.740Z,26.36
2023-04-17T20:11:45.822Z,26.34
2023-04-17T20:13:51.003Z,26.35
2023-04-17T20:15:56.215Z,26.34
2023-04-17T20:18:01.352Z,26.33
2023-04-17T20:20:06.572Z,26.31
2023-04-17T20:22:11.725Z,26.3
2023-04-17T20:24:16.811Z,26.3
2023-04-17T20:26:21.883Z,26.28
2023-04-17T20:28:27.013Z,26.27
2023-04-17T20:30:32.917Z,26.28
2023-04-17T20:32:37.971Z,26.24
2023-04-17T20:34:43.121Z,26.23
2023-04-17T20:36:48.200Z,26.22
2023-04-17T20:38:53.267Z,26.23
2023-04-17T20:40:58.301Z,26.23
2023-04-17T20:43:03.496Z,26.23
2023-04-17T20:45:08.623Z,26.23
2023-04-17T20:47:13.776Z,26.23
2023-04-17T20:49:18.897Z,26.22
2023-04-17T20:51:24.085Z,26.22
2023-04-17T20:53:29.276Z,26.21
2023-04-17T20:55:34.469Z,26.21
2023-04-17T20:57:39.532Z,26.2
2023-04-17T20:59:44.718Z,26.18
2023-04-17T21:01:49.905Z,26.17
2023-04-17T21:03:55.319Z,26.15
2023-04-17T21:06:00.846Z,26.14
2023-04-17T21:08:06.101Z,26.13
2023-04-17T21:10:11.299Z,26.13
2023-04-17T21:12:16.338Z,26.12
2023-04-17T21:14:21.475Z,26.12
2023-04-17T21:16:26.584Z,26.11
2023-04-17T21:18:31.745Z,26.11
2023-04-17T21:20:36.848Z,26.1
2023-04-17T21:22:42.039Z,26.1
2023-04-17T21:24:47.249Z,26.09
2023-04-17T21:26:52.318Z,26.08
2023-04-17T21:28:57.393Z,26.06
2023-04-17T21:31:02.459Z,26.06
2023-04-17T21:33:07.695Z,26.06
2023-04-17T21:35:12.797Z,26.04
2023-04-17T21:37:17.839Z,26.05
2023-04-17T21:39:22.930Z,26.04
2023-04-17T21:41:27.951Z,26.03
2023-04-17T21:43:33.003Z,26.04
2023-04-17T21:45:38.105Z,26.05
2023-04-17T21:47:43.385Z,26.03
2023-04-17T21:49:48.689Z,26
2023-04-17T21:51:53.848Z,26.01
2023-04-17T21:53:58.958Z,26.03
2023-04-17T21:56:06.314Z,26.02
2023-04-17T21:58:11.962Z,26.04
2023-04-17T22:00:17.072Z,26.03
2023-04-17T22:02:22.204Z,26.03
2023-04-17T22:04:27.664Z,26.05
2023-04-17T22:06:32.948Z,26.05
2023-04-17T22:08:37.982Z,26.08
2023-04-17T22:10:43.107Z,26.11
2023-04-17T22:12:48.241Z,26.11
2023-04-17T22:14:53.345Z,26.08
2023-04-17T22:16:58.579Z,26.07
2023-04-17T22:19:03.990Z,26.02
2023-04-17T22:21:09.009Z,25.98
2023-04-17T22:23:14.091Z,25.97
2023-04-17T22:25:19.236Z,25.95
2023-04-17T22:27:24.542Z,25.93
2023-04-17T22:29:29.598Z,25.91
2023-04-17T22:31:34.683Z,25.9
2023-04-17T22:33:40.028Z,25.87
2023-04-17T22:35:45.233Z,25.85
2023-04-17T22:37:50.259Z,25.83
2023-04-17T22:39:55.382Z,25.83
2023-04-17T22:44:48.914Z,25.81
2023-04-17T22:46:55.464Z,25.78
2023-04-17T22:49:00.496Z,25.76
2023-04-17T22:51:05.738Z,25.74
2023-04-17T22:53:10.774Z,25.73
2023-04-17T22:55:15.826Z,25.73
2023-04-17T22:57:20.862Z,25.71
2023-04-17T22:59:25.961Z,25.7
2023-04-17T23:01:31.090Z,25.69
2023-04-17T23:03:36.226Z,25.68
2023-04-17T23:05:41.466Z,25.66
2023-04-17T23:07:46.580Z,25.66
2023-04-17T23:09:51.626Z,25.66
2023-04-17T23:11:56.698Z,25.65
2023-04-17T23:14:01.748Z,25.62
2023-04-17T23:16:06.919Z,25.61
2023-04-17T23:18:12.213Z,25.63
2023-04-17T23:20:17.242Z,25.61
2023-04-17T23:22:22.336Z,25.61
2023-04-17T23:24:27.709Z,25.6
2023-04-17T23:26:32.769Z,25.6
2023-04-17T23:28:37.821Z,25.6
2023-04-17T23:30:42.859Z,25.59
2023-04-17T23:32:48.041Z,25.57
2023-04-17T23:34:53.277Z,25.55
2023-04-17T23:36:58.458Z,25.55
2023-04-17T23:39:03.696Z,25.56
2023-04-17T23:41:08.723Z,25.55
2023-04-17T23:43:13.811Z,25.56
2023-04-17T23:45:18.881Z,25.53
2023-04-17T23:47:23.945Z,25.54
2023-04-17T23:49:29.112Z,25.53
2023-04-17T23:51:34.188Z,25.52
2023-04-17T23:53:39.182Z,25.51
2023-04-17T23:55:44.341Z,25.52
2023-04-17T23:57:49.382Z,25.52
2023-04-17T23:59:54.619Z,25.49
